createdAt,value
2023-09-09T00:00:02.980Z,85.09
2023-09-09T00:00:58.681Z,85.15
2023-09-09T00:01:53.955Z,85.23
2023-09-09T00:02:49.732Z,85.25
2023-09-09T00:03:44.876Z,85.26
2023-09-09T00:04:40.364Z,85.28
2023-09-09T00:05:35.892Z,85.35
2023-09-09T00:06:31.168Z,85.47
2023-09-09T00:07:26.400Z,85.55
2023-09-09T00:08:22.703Z,85.72
2023-09-09T00:09:17.903Z,85.77
2023-09-09T00:10:13.929Z,85.79
2023-09-09T00:11:08.945Z,85.69
2023-09-09T00:12:04.200Z,85.65
2023-09-09T00:12:59.927Z,85.62
2023-09-09T00:13:55.145Z,85.57
2023-09-09T00:14:50.871Z,85.48
2023-09-09T00:15:46.081Z,85.53
2023-09-09T00:16:41.335Z,85.57
2023-09-09T00:17:37.066Z,85.65
2023-09-09T00:18:32.235Z,85.65
2023-09-09T00:19:27.435Z,85.63
2023-09-09T00:20:23.689Z,85.65
2023-09-09T00:21:19.079Z,85.58
2023-09-09T00:22:14.693Z,85.58
2023-09-09T00:23:09.956Z,85.60
2023-09-09T00:24:05.230Z,85.57
2023-09-09T00:25:01.017Z,85.62
2023-09-09T00:25:56.204Z,85.62
2023-09-09T00:26:52.403Z,85.51
2023-09-09T00:27:47.308Z,85.54
2023-09-09T00:28:42.559Z,85.43
2023-09-09T00:29:38.308Z,85.51
2023-09-09T00:30:33.473Z,85.51
2023-09-09T00:31:29.016Z,85.46
2023-09-09T00:32:25.150Z,85.48
2023-09-09T00:33:20.187Z,85.46
2023-09-09T00:34:16.018Z,85.55
2023-09-09T00:35:11.167Z,85.53
2023-09-09T00:36:06.547Z,85.70
2023-09-09T00:37:02.179Z,85.68
2023-09-09T00:37:57.414Z,85.81
2023-09-09T00:38:53.138Z,85.74
2023-09-09T00:39:48.317Z,85.68
2023-09-09T00:40:43.621Z,85.62
2023-09-09T00:41:39.564Z,85.67
2023-09-09T00:42:34.598Z,85.68
2023-09-09T00:43:29.799Z,85.60
2023-09-09T00:44:25.932Z,85.51
2023-09-09T00:45:21.229Z,85.47
2023-09-09T00:46:17.072Z,85.47
2023-09-09T00:47:12.257Z,85.47
2023-09-09T00:48:07.445Z,85.53
2023-09-09T00:49:03.187Z,85.53
2023-09-09T00:49:58.427Z,85.54
2023-09-09T00:50:53.596Z,85.50
2023-09-09T00:51:48.956Z,85.47
2023-09-09T00:52:44.017Z,85.59
2023-09-09T00:53:40.481Z,85.77
2023-09-09T00:54:35.654Z,85.81
2023-09-09T00:55:31.369Z,85.91
2023-09-09T00:56:26.721Z,85.90
2023-09-09T00:57:21.651Z,86.03
2023-09-09T00:58:17.579Z,86.18
2023-09-09T00:59:12.744Z,86.14
2023-09-09T01:00:08.626Z,86.15
2023-09-09T01:01:03.782Z,86.08
2023-09-09T01:01:59.176Z,86.17
2023-09-09T01:02:54.887Z,86.32
2023-09-09T01:03:50.111Z,86.26
2023-09-09T01:04:45.134Z,86.34
2023-09-09T01:05:41.675Z,86.37
2023-09-09T01:06:36.897Z,86.38
2023-09-09T01:07:32.061Z,86.31
2023-09-09T01:08:27.251Z,86.17
2023-09-09T01:09:24.938Z,86.14
2023-09-09T01:10:20.205Z,86.19
2023-09-09T01:11:15.331Z,86.11
2023-09-09T01:12:11.039Z,86.11
2023-09-09T01:13:06.241Z,86.03
2023-09-09T01:14:01.445Z,86.04
2023-09-09T01:14:56.663Z,86.01
2023-09-09T01:15:51.697Z,86.13
2023-09-09T01:16:46.889Z,86.00
2023-09-09T01:17:41.804Z,86.02
2023-09-09T01:18:36.755Z,86.00
2023-09-09T01:19:31.781Z,86.07
2023-09-09T01:20:26.996Z,86.12
2023-09-09T01:21:22.221Z,86.14
2023-09-09T01:22:17.248Z,86.15
2023-09-09T01:23:12.290Z,86.15
2023-09-09T01:24:07.394Z,86.20
2023-09-09T01:25:02.283Z,86.26
2023-09-09T01:25:57.347Z,86.20
2023-09-09T01:26:52.623Z,86.29
2023-09-09T01:27:49.867Z,86.25
2023-09-09T01:28:44.889Z,86.27
2023-09-09T01:29:39.986Z,86.29
2023-09-09T01:30:35.137Z,86.38
2023-09-09T01:31:30.335Z,86.28
2023-09-09T01:32:25.176Z,86.32
2023-09-09T01:33:20.238Z,86.39
2023-09-09T01:34:15.269Z,86.51
2023-09-09T01:35:10.361Z,86.53
2023-09-09T01:36:05.412Z,86.52
2023-09-09T01:37:00.614Z,86.48
2023-09-09T01:37:55.558Z,86.42
2023-09-09T01:38:50.571Z,86.51
2023-09-09T01:39:45.592Z,86.49
2023-09-09T01:40:40.670Z,86.51
2023-09-09T01:41:35.838Z,86.44
2023-09-09T01:42:30.828Z,86.43
2023-09-09T01:43:25.844Z,86.48
2023-09-09T01:44:20.891Z,86.53
2023-09-09T01:45:15.917Z,86.58
2023-09-09T01:46:11.133Z,86.56
2023-09-09T01:47:06.095Z,86.47
2023-09-09T01:48:01.217Z,86.46
2023-09-09T01:48:56.237Z,86.50
2023-09-09T01:49:51.316Z,86.47
2023-09-09T01:50:46.335Z,86.35
2023-09-09T01:51:41.558Z,86.28
2023-09-09T01:52:36.459Z,86.21
2023-09-09T01:53:31.499Z,86.27
2023-09-09T01:54:26.543Z,86.27
2023-09-09T01:55:21.595Z,86.27
2023-09-09T01:56:16.623Z,86.29
2023-09-09T01:57:11.696Z,86.33
2023-09-09T01:58:06.831Z,86.25
2023-09-09T01:59:02.087Z,86.22
2023-09-09T01:59:57.203Z,86.21
2023-09-09T02:00:52.585Z,86.27
2023-09-09T02:01:47.734Z,86.41
2023-09-09T02:02:43.063Z,86.48
2023-09-09T02:03:38.321Z,86.53
2023-09-09T02:04:33.134Z,86.56
2023-09-09T02:05:28.447Z,86.58
2023-09-09T02:06:23.638Z,86.58
2023-09-09T02:07:18.805Z,86.49
2023-09-09T02:08:13.883Z,86.41
2023-09-09T02:09:09.194Z,86.29
2023-09-09T02:10:04.449Z,86.26
2023-09-09T02:10:59.613Z,86.29
2023-09-09T02:11:54.822Z,86.37
2023-09-09T02:12:50.277Z,86.40
2023-09-09T02:13:45.240Z,86.35
2023-09-09T02:14:40.222Z,86.44
2023-09-09T02:15:35.330Z,86.39
2023-09-09T02:16:30.372Z,86.36
2023-09-09T02:17:25.534Z,86.49
2023-09-09T02:18:20.322Z,86.46
2023-09-09T02:19:15.355Z,86.46
2023-09-09T02:20:10.425Z,86.67
2023-09-09T02:21:05.542Z,86.61
2023-09-09T02:22:00.562Z,86.64
2023-09-09T02:22:55.780Z,86.61
2023-09-09T02:23:50.681Z,86.55
2023-09-09T02:24:46.286Z,86.60
2023-09-09T02:25:41.460Z,86.58
2023-09-09T02:26:36.609Z,86.63
2023-09-09T02:27:32.010Z,86.64
2023-09-09T02:28:26.929Z,86.73
2023-09-09T02:29:22.211Z,86.87
2023-09-09T02:30:17.273Z,86.83
2023-09-09T02:31:12.640Z,86.75
2023-09-09T02:32:08.389Z,86.69
2023-09-09T02:33:03.624Z,86.59
2023-09-09T02:33:58.969Z,86.74
2023-09-09T02:34:54.736Z,86.75
2023-09-09T02:35:49.971Z,86.77
2023-09-09T02:36:45.704Z,86.82
2023-09-09T02:37:41.041Z,86.79
2023-09-09T02:38:36.239Z,86.83
2023-09-09T02:39:31.884Z,86.82
2023-09-09T02:40:27.075Z,86.75
2023-09-09T02:41:22.255Z,86.65
2023-09-09T02:42:18.688Z,86.67
2023-09-09T02:43:14.073Z,86.78
2023-09-09T02:44:09.677Z,86.82
2023-09-09T02:45:04.973Z,86.78
2023-09-09T02:46:00.083Z,86.87
2023-09-09T02:46:55.820Z,86.89
2023-09-09T02:47:51.257Z,86.89
2023-09-09T02:48:46.805Z,86.92
2023-09-09T02:49:42.020Z,86.91
2023-09-09T02:50:37.224Z,86.84
2023-09-09T02:51:33.145Z,86.97
2023-09-09T02:52:28.216Z,87.04
2023-09-09T02:53:23.571Z,87.11
2023-09-09T02:54:19.583Z,87.08
2023-09-09T02:55:14.861Z,86.96
2023-09-09T02:56:10.595Z,86.99
2023-09-09T02:57:05.817Z,86.91
2023-09-09T02:58:01.061Z,86.88
2023-09-09T02:58:56.705Z,86.91
2023-09-09T02:59:51.907Z,86.93
2023-09-09T03:00:47.831Z,86.89
2023-09-09T03:01:42.856Z,86.85
2023-09-09T03:02:38.460Z,86.68
2023-09-09T03:03:34.174Z,86.57
2023-09-09T03:04:29.258Z,86.61
2023-09-09T03:05:24.545Z,86.66
2023-09-09T03:06:20.853Z,86.61
2023-09-09T03:07:16.030Z,86.58
2023-09-09T03:08:11.951Z,86.59
2023-09-09T03:09:07.102Z,86.59
2023-09-09T03:10:02.469Z,86.67
2023-09-09T03:10:58.079Z,86.74
2023-09-09T03:11:53.274Z,86.80
2023-09-09T03:12:49.018Z,86.92
2023-09-09T03:13:44.333Z,86.87
2023-09-09T03:14:39.558Z,86.88
2023-09-09T03:15:35.423Z,86.91
2023-09-09T03:16:30.470Z,86.85
2023-09-09T03:17:25.642Z,86.77
2023-09-09T03:18:22.018Z,86.79
2023-09-09T03:19:17.071Z,86.78
2023-09-09T03:20:12.814Z,86.75
2023-09-09T03:21:07.977Z,86.71
2023-09-09T03:22:04.004Z,86.71
2023-09-09T03:22:58.928Z,86.68
2023-09-09T03:23:54.298Z,86.61
2023-09-09T03:24:49.922Z,86.66
2023-09-09T03:25:45.170Z,86.70
2023-09-09T03:26:40.346Z,86.79
2023-09-09T03:27:36.100Z,86.90
2023-09-09T03:28:31.334Z,86.83
2023-09-09T03:29:26.525Z,86.91
2023-09-09T03:30:22.838Z,87.02
2023-09-09T03:31:18.063Z,87.24
2023-09-09T03:32:13.192Z,87.44
2023-09-09T03:33:08.397Z,87.53
2023-09-09T03:34:05.348Z,87.53
2023-09-09T03:34:59.265Z,87.52
2023-09-09T03:35:55.147Z,87.40
2023-09-09T03:36:50.325Z,87.29
2023-09-09T03:37:45.568Z,87.22
2023-09-09T03:38:41.318Z,87.25
2023-09-09T03:39:36.551Z,87.22
2023-09-09T03:40:31.665Z,87.25
2023-09-09T03:41:27.974Z,87.27
2023-09-09T03:42:23.154Z,87.21
2023-09-09T03:43:19.085Z,87.18
2023-09-09T03:44:14.283Z,87.12
2023-09-09T03:45:09.397Z,87.14
2023-09-09T03:46:05.194Z,87.14
2023-09-09T03:47:00.398Z,87.14
2023-09-09T03:47:56.298Z,87.06
2023-09-09T03:48:51.540Z,87.03
2023-09-09T03:49:46.522Z,86.96
2023-09-09T03:50:41.724Z,86.97
2023-09-09T03:51:36.921Z,86.98
2023-09-09T03:52:32.150Z,87.03
2023-09-09T03:53:27.265Z,86.97
2023-09-09T03:54:23.251Z,87.00
2023-09-09T03:55:18.242Z,86.95
2023-09-09T03:56:13.477Z,86.91
2023-09-09T03:57:09.334Z,86.87
2023-09-09T03:58:04.651Z,86.82
2023-09-09T03:58:59.885Z,86.83
2023-09-09T03:59:54.926Z,86.71
2023-09-09T04:00:50.035Z,86.68
2023-09-09T04:01:45.133Z,86.72
2023-09-09T04:02:40.104Z,86.72
2023-09-09T04:03:35.486Z,86.76
2023-09-09T04:04:30.483Z,86.76
2023-09-09T04:05:25.282Z,86.78
2023-09-09T04:06:20.357Z,86.88
2023-09-09T04:07:15.464Z,86.93
2023-09-09T04:08:10.385Z,86.93
2023-09-09T04:09:05.594Z,87.01
2023-09-09T04:10:00.531Z,87.08
2023-09-09T04:10:55.605Z,86.96
2023-09-09T04:11:50.634Z,87.01
2023-09-09T04:12:45.666Z,87.00
2023-09-09T04:13:41.104Z,87.09
2023-09-09T04:14:35.955Z,87.32
2023-09-09T04:15:30.848Z,87.30
2023-09-09T04:16:30.313Z,87.17
2023-09-09T04:17:25.529Z,87.14
2023-09-09T04:18:30.580Z,86.98
2023-09-09T04:19:16.629Z,86.86
2023-09-09T04:20:10.950Z,86.99
2023-09-09T04:21:06.125Z,87.01
2023-09-09T04:22:01.200Z,86.91
2023-09-09T04:22:56.351Z,86.81
2023-09-09T04:23:51.602Z,86.95
2023-09-09T04:24:47.474Z,87.20
2023-09-09T04:25:42.690Z,87.29
2023-09-09T04:26:38.465Z,87.37
2023-09-09T04:27:33.694Z,87.47
2023-09-09T04:28:29.058Z,87.57
2023-09-09T04:29:24.778Z,87.56
2023-09-09T04:30:20.035Z,87.55
2023-09-09T04:31:15.340Z,87.63
2023-09-09T04:32:11.499Z,87.66
2023-09-09T04:33:06.857Z,87.71
2023-09-09T04:34:02.747Z,87.64
2023-09-09T04:34:57.821Z,87.41
2023-09-09T04:35:53.013Z,87.32
2023-09-09T04:36:48.787Z,87.31
2023-09-09T04:37:44.043Z,87.22
2023-09-09T04:38:42.578Z,87.14
2023-09-09T04:39:35.071Z,87.14
2023-09-09T04:40:30.487Z,87.24
2023-09-09T04:41:25.722Z,87.25
2023-09-09T04:42:21.603Z,87.18
2023-09-09T04:43:16.755Z,87.17
2023-09-09T04:44:12.385Z,87.08
2023-09-09T04:45:07.837Z,86.98
2023-09-09T04:46:03.204Z,86.88
2023-09-09T04:46:58.309Z,86.96
2023-09-09T04:47:54.932Z,86.96
2023-09-09T04:48:50.117Z,86.94
2023-09-09T04:49:46.158Z,86.87
2023-09-09T04:50:41.281Z,86.64
2023-09-09T04:51:36.512Z,86.67
2023-09-09T04:52:32.289Z,86.60
2023-09-09T04:53:27.726Z,86.40
2023-09-09T04:54:23.461Z,86.51
2023-09-09T04:55:18.814Z,86.66
2023-09-09T04:56:14.104Z,86.84
2023-09-09T04:57:09.864Z,87.27
2023-09-09T04:58:05.202Z,87.38
2023-09-09T04:59:00.608Z,87.26
2023-09-09T04:59:57.080Z,87.10
2023-09-09T05:00:52.303Z,87.17
2023-09-09T05:01:48.130Z,87.15
2023-09-09T05:02:43.478Z,87.06
2023-09-09T05:03:38.923Z,86.97
2023-09-09T05:04:34.593Z,87.06
2023-09-09T05:05:30.025Z,87.37
2023-09-09T05:06:25.751Z,87.53
2023-09-09T05:07:20.983Z,87.61
2023-09-09T05:08:16.353Z,87.64
2023-09-09T05:09:12.120Z,87.92
2023-09-09T05:10:07.647Z,88.02
2023-09-09T05:11:02.812Z,88.09
2023-09-09T05:11:59.298Z,88.16
2023-09-09T05:12:54.714Z,88.26
2023-09-09T05:13:50.631Z,88.39
2023-09-09T05:14:45.945Z,88.41
2023-09-09T05:15:41.612Z,88.43
2023-09-09T05:16:37.210Z,88.26
2023-09-09T05:17:32.490Z,88.03
2023-09-09T05:18:29.411Z,87.86
2023-09-09T05:19:23.699Z,87.81
2023-09-09T05:20:19.218Z,87.71
2023-09-09T05:21:15.773Z,87.78
2023-09-09T05:22:11.120Z,87.80
2023-09-09T05:23:06.417Z,87.83
2023-09-09T05:24:02.891Z,87.79
2023-09-09T05:24:58.291Z,87.82
2023-09-09T05:25:53.728Z,87.91
2023-09-09T05:26:48.997Z,88.06
2023-09-09T05:27:44.968Z,88.11
2023-09-09T05:28:40.440Z,88.07
2023-09-09T05:29:35.661Z,88.07
2023-09-09T05:30:32.352Z,88.06
2023-09-09T05:31:27.471Z,88.06
2023-09-09T05:32:23.331Z,88.06
2023-09-09T05:33:18.677Z,87.98
2023-09-09T05:34:13.985Z,87.94
2023-09-09T05:35:09.711Z,87.88
2023-09-09T05:36:05.151Z,87.80
2023-09-09T05:37:00.944Z,87.73
2023-09-09T05:37:56.233Z,87.62
2023-09-09T05:38:51.651Z,87.42
2023-09-09T05:39:47.500Z,87.28
2023-09-09T05:40:43.059Z,87.24
2023-09-09T05:41:38.311Z,87.22
2023-09-09T05:42:33.608Z,87.14
2023-09-09T05:43:29.006Z,87.07
2023-09-09T05:44:24.013Z,87.06
2023-09-09T05:45:19.043Z,87.01
2023-09-09T05:46:14.316Z,86.93
2023-09-09T05:47:09.203Z,86.79
2023-09-09T05:48:10.267Z,86.69
2023-09-09T05:49:05.568Z,86.52
2023-09-09T05:50:00.883Z,86.30
2023-09-09T05:50:56.348Z,86.11
2023-09-09T05:51:51.383Z,85.92
2023-09-09T05:52:46.533Z,85.74
2023-09-09T05:53:41.787Z,85.57
2023-09-09T05:54:36.581Z,85.50
2023-09-09T05:55:31.640Z,85.65
2023-09-09T05:56:26.919Z,85.45
2023-09-09T05:57:21.729Z,85.31
2023-09-09T05:58:16.767Z,85.25
2023-09-09T05:59:11.794Z,85.36
2023-09-09T06:00:06.883Z,85.31
2023-09-09T06:01:02.222Z,85.39
2023-09-09T06:01:57.203Z,85.47
2023-09-09T06:02:52.236Z,85.51
2023-09-09T06:03:47.364Z,85.47
2023-09-09T06:04:42.368Z,85.44
2023-09-09T06:05:37.360Z,85.34
2023-09-09T06:06:32.576Z,85.31
2023-09-09T06:07:27.541Z,85.28
2023-09-09T06:08:22.566Z,85.29
2023-09-09T06:09:17.647Z,85.22
2023-09-09T06:10:12.677Z,85.20
2023-09-09T06:11:08.151Z,85.01
2023-09-09T06:12:03.554Z,84.89
2023-09-09T06:12:58.899Z,84.82
2023-09-09T06:13:54.290Z,84.83
2023-09-09T06:14:49.645Z,84.72
2023-09-09T06:15:45.103Z,84.59
2023-09-09T06:16:40.634Z,84.50
2023-09-09T06:17:35.800Z,84.40
2023-09-09T06:18:31.259Z,84.28
2023-09-09T06:19:26.602Z,84.28
2023-09-09T06:20:22.074Z,84.22
2023-09-09T06:21:17.522Z,84.19
2023-09-09T06:22:12.944Z,84.16
2023-09-09T06:23:12.433Z,84.07
2023-09-09T06:24:07.879Z,83.93
2023-09-09T06:25:03.275Z,83.73
2023-09-09T06:25:58.702Z,83.57
2023-09-09T06:26:54.458Z,83.44
2023-09-09T06:27:49.671Z,83.21
2023-09-09T06:28:45.193Z,83.14
2023-09-09T06:29:40.650Z,82.88
2023-09-09T06:30:35.897Z,82.73
2023-09-09T06:31:31.313Z,82.62
2023-09-09T06:32:27.059Z,82.50
2023-09-09T06:33:22.095Z,82.31
2023-09-09T06:34:17.561Z,82.14
2023-09-09T06:35:13.022Z,81.93
2023-09-09T06:36:08.416Z,81.85
2023-09-09T06:37:03.444Z,81.67
2023-09-09T06:37:58.516Z,81.48
2023-09-09T06:38:53.813Z,81.29
2023-09-09T06:39:48.754Z,81.08
2023-09-09T06:40:43.851Z,80.72
2023-09-09T06:41:38.903Z,80.32
2023-09-09T06:42:34.238Z,80.08
2023-09-09T06:43:29.170Z,79.99
2023-09-09T06:44:24.181Z,79.75
2023-09-09T06:45:19.768Z,79.48
2023-09-09T06:46:14.293Z,79.20
2023-09-09T06:47:09.334Z,79.00
2023-09-09T06:48:04.608Z,79.01
2023-09-09T06:48:59.508Z,78.89
2023-09-09T06:49:54.559Z,78.67
2023-09-09T06:50:49.673Z,78.55
2023-09-09T06:51:44.719Z,78.35
2023-09-09T06:52:39.974Z,78.20
2023-09-09T06:53:34.859Z,78.06
2023-09-09T06:54:31.038Z,77.88
2023-09-09T06:55:26.376Z,77.65
2023-09-09T06:56:21.831Z,77.50
2023-09-09T06:57:17.027Z,77.28
2023-09-09T06:58:12.686Z,77.11
2023-09-09T06:59:07.452Z,76.95
2023-09-09T07:00:02.646Z,76.38
2023-09-09T07:00:57.668Z,75.85
2023-09-09T07:01:52.751Z,75.74
2023-09-09T07:02:47.988Z,75.62
2023-09-09T07:03:43.338Z,75.28
2023-09-09T07:04:38.021Z,75.14
2023-09-09T07:05:33.017Z,75.01
2023-09-09T07:06:28.176Z,74.81
2023-09-09T07:07:23.329Z,74.65
2023-09-09T07:08:18.488Z,74.47
2023-09-09T07:09:13.425Z,73.79
2023-09-09T07:10:08.442Z,72.93
2023-09-09T07:11:03.551Z,72.00
2023-09-09T07:11:58.860Z,71.50
2023-09-09T07:12:53.926Z,71.11
2023-09-09T07:13:49.129Z,71.18
2023-09-09T07:14:44.209Z,70.97
2023-09-09T07:15:39.337Z,70.70
2023-09-09T07:16:34.424Z,70.12
2023-09-09T07:17:29.404Z,69.71
2023-09-09T07:18:24.859Z,69.12
2023-09-09T07:19:20.055Z,69.30
2023-09-09T07:20:15.582Z,68.95
2023-09-09T07:21:10.958Z,68.41
2023-09-09T07:22:06.658Z,68.37
2023-09-09T07:23:01.982Z,68.26
2023-09-09T07:23:57.588Z,67.98
2023-09-09T07:24:52.950Z,67.27
2023-09-09T07:25:48.581Z,67.00
2023-09-09T07:26:43.937Z,66.80
2023-09-09T07:27:39.516Z,66.66
2023-09-09T07:28:34.703Z,67.09
2023-09-09T07:29:29.662Z,67.12
2023-09-09T07:30:24.577Z,66.34
2023-09-09T07:31:19.857Z,65.95
2023-09-09T07:32:14.790Z,65.35
2023-09-09T07:33:09.984Z,65.55
2023-09-09T07:34:05.152Z,65.24
2023-09-09T07:35:02.170Z,64.79
2023-09-09T07:35:57.225Z,65.41
2023-09-09T07:36:52.338Z,65.14
2023-09-09T07:37:48.694Z,65.08
2023-09-09T07:38:42.453Z,65.12
2023-09-09T07:39:37.401Z,65.21
2023-09-09T07:40:32.750Z,65.57
2023-09-09T07:41:27.593Z,65.44
2023-09-09T07:42:22.648Z,65.02
2023-09-09T07:43:17.623Z,64.99
2023-09-09T07:44:12.702Z,64.57
2023-09-09T07:45:07.703Z,64.96
2023-09-09T07:46:03.050Z,65.32
2023-09-09T07:46:58.490Z,65.10
2023-09-09T07:47:54.041Z,65.27
2023-09-09T07:48:49.427Z,65.61
2023-09-09T07:49:44.886Z,64.65
2023-09-09T07:50:40.332Z,64.93
2023-09-09T07:51:35.870Z,65.15
2023-09-09T07:52:31.430Z,65.31
2023-09-09T07:53:28.221Z,65.40
2023-09-09T07:54:23.837Z,65.38
2023-09-09T07:55:19.168Z,65.64
2023-09-09T07:56:14.621Z,65.67
2023-09-09T07:57:10.100Z,65.03
2023-09-09T07:58:07.832Z,65.02
2023-09-09T07:59:03.412Z,64.53
2023-09-09T07:59:58.728Z,65.02
2023-09-09T08:00:54.144Z,65.11
2023-09-09T08:01:49.539Z,65.39
2023-09-09T08:02:45.099Z,65.72
2023-09-09T08:03:40.967Z,65.35
2023-09-09T08:04:36.469Z,65.70
2023-09-09T08:05:31.691Z,65.28
2023-09-09T08:06:27.127Z,64.69
2023-09-09T08:07:22.552Z,64.21
2023-09-09T08:08:18.007Z,63.77
2023-09-09T08:09:13.605Z,64.24
2023-09-09T08:10:09.020Z,64.48
2023-09-09T08:11:04.793Z,64.14
2023-09-09T08:12:00.253Z,63.99
2023-09-09T08:12:55.722Z,63.98
2023-09-09T08:13:51.440Z,64.40
2023-09-09T08:14:46.607Z,64.36
2023-09-09T08:15:42.157Z,64.70
2023-09-09T08:16:37.637Z,64.57
2023-09-09T08:17:33.156Z,64.43
2023-09-09T08:18:28.530Z,64.28
2023-09-09T08:19:24.063Z,64.02
2023-09-09T08:20:23.255Z,63.83
2023-09-09T08:21:18.833Z,63.55
2023-09-09T08:22:14.237Z,63.43
2023-09-09T08:23:09.665Z,62.87
2023-09-09T08:24:05.076Z,63.01
2023-09-09T08:25:00.646Z,61.97
2023-09-09T08:25:55.677Z,61.43
2023-09-09T08:26:50.718Z,60.71
2023-09-09T08:27:45.804Z,60.88
2023-09-09T08:28:40.951Z,61.12
2023-09-09T08:29:36.174Z,61.43
2023-09-09T08:30:31.120Z,61.25
2023-09-09T08:31:26.421Z,61.21
2023-09-09T08:32:21.401Z,61.48
2023-09-09T08:33:16.478Z,61.86
2023-09-09T08:34:11.722Z,62.33
2023-09-09T08:35:06.517Z,62.49
2023-09-09T08:36:01.607Z,62.28
2023-09-09T08:36:56.775Z,61.76
2023-09-09T08:37:52.184Z,61.24
2023-09-09T08:38:47.546Z,61.22
2023-09-09T08:39:43.125Z,61.11
2023-09-09T08:40:38.045Z,61.06
2023-09-09T08:41:33.264Z,60.82
2023-09-09T08:42:28.350Z,60.85
2023-09-09T08:43:24.907Z,60.32
2023-09-09T08:44:19.984Z,60.62
2023-09-09T08:45:15.096Z,60.01
2023-09-09T08:46:10.293Z,60.06
2023-09-09T08:47:05.338Z,59.45
2023-09-09T08:48:00.461Z,59.09
2023-09-09T08:48:55.515Z,58.58
2023-09-09T08:49:50.735Z,58.72
2023-09-09T08:50:45.843Z,59.00
2023-09-09T08:51:40.843Z,58.59
2023-09-09T08:52:36.001Z,58.42
2023-09-09T08:53:30.965Z,57.74
2023-09-09T08:54:26.100Z,58.27
2023-09-09T08:55:21.127Z,58.58
2023-09-09T08:56:16.081Z,58.27
2023-09-09T08:57:11.251Z,57.47
2023-09-09T08:58:06.213Z,58.19
2023-09-09T08:59:01.458Z,57.82
2023-09-09T08:59:56.380Z,57.92
2023-09-09T09:00:51.520Z,58.01
2023-09-09T09:01:46.702Z,58.79
2023-09-09T09:02:41.674Z,58.87
2023-09-09T09:03:37.155Z,58.53
2023-09-09T09:04:31.993Z,58.03
2023-09-09T09:05:26.866Z,57.48
2023-09-09T09:06:21.898Z,57.33
2023-09-09T09:07:17.031Z,57.46
2023-09-09T09:08:12.051Z,57.47
2023-09-09T09:09:07.168Z,57.46
2023-09-09T09:10:02.388Z,57.65
2023-09-09T09:10:57.362Z,57.36
2023-09-09T09:11:52.542Z,57.65
2023-09-09T09:12:48.146Z,57.70
2023-09-09T09:13:43.574Z,56.97
2023-09-09T09:14:39.234Z,56.35
2023-09-09T09:15:34.586Z,56.57
2023-09-09T09:16:29.691Z,56.57
2023-09-09T09:17:24.793Z,57.09
2023-09-09T09:18:19.868Z,57.06
2023-09-09T09:19:14.936Z,57.40
2023-09-09T09:20:10.035Z,56.82
2023-09-09T09:21:04.973Z,56.24
2023-09-09T09:22:00.065Z,56.12
2023-09-09T09:22:55.122Z,56.04
2023-09-09T09:23:50.330Z,55.90
2023-09-09T09:24:45.529Z,55.98
2023-09-09T09:25:40.508Z,55.56
2023-09-09T09:26:35.521Z,55.73
2023-09-09T09:27:30.639Z,55.94
2023-09-09T09:28:25.584Z,56.53
2023-09-09T09:29:23.051Z,56.36
2023-09-09T09:30:18.418Z,56.85
2023-09-09T09:31:13.822Z,56.86
2023-09-09T09:32:09.266Z,56.85
2023-09-09T09:33:04.995Z,56.72
2023-09-09T09:34:00.456Z,57.08
2023-09-09T09:34:55.968Z,57.05
2023-09-09T09:35:51.306Z,57.32
2023-09-09T09:36:46.917Z,56.61
2023-09-09T09:37:42.278Z,56.36
2023-09-09T09:38:37.631Z,56.97
2023-09-09T09:39:32.966Z,56.26
2023-09-09T09:40:28.490Z,55.83
2023-09-09T09:41:23.832Z,55.13
2023-09-09T09:42:19.409Z,54.74
2023-09-09T09:43:14.370Z,54.92
2023-09-09T09:44:09.645Z,54.67
2023-09-09T09:45:04.485Z,54.81
2023-09-09T09:45:59.583Z,54.45
2023-09-09T09:46:54.731Z,54.65
2023-09-09T09:47:49.840Z,54.64
2023-09-09T09:48:44.883Z,54.24
2023-09-09T09:49:40.016Z,53.91
2023-09-09T09:50:36.803Z,53.62
2023-09-09T09:51:31.894Z,54.06
2023-09-09T09:52:27.023Z,54.00
2023-09-09T09:53:22.063Z,54.06
2023-09-09T09:54:17.259Z,53.47
2023-09-09T09:55:12.566Z,53.89
2023-09-09T09:56:07.465Z,54.50
2023-09-09T09:57:02.535Z,53.93
2023-09-09T09:57:57.588Z,53.81
2023-09-09T09:58:52.709Z,53.63
2023-09-09T09:59:48.889Z,53.82
2023-09-09T10:00:44.286Z,54.22
2023-09-09T10:01:40.044Z,54.03
2023-09-09T10:02:35.621Z,53.75
2023-09-09T10:03:31.110Z,53.69
2023-09-09T10:04:26.911Z,53.93
2023-09-09T10:05:22.537Z,53.76
2023-09-09T10:06:18.280Z,53.35
2023-09-09T10:07:13.638Z,53.65
2023-09-09T10:08:08.986Z,53.81
2023-09-09T10:09:04.750Z,54.31
2023-09-09T10:10:00.239Z,53.96
2023-09-09T10:10:55.692Z,53.40
2023-09-09T10:11:52.163Z,53.54
2023-09-09T10:12:49.336Z,53.40
2023-09-09T10:13:45.432Z,53.68
2023-09-09T10:14:38.773Z,53.44
2023-09-09T10:15:34.294Z,53.59
2023-09-09T10:16:30.116Z,53.71
2023-09-09T10:17:25.780Z,53.87
2023-09-09T10:18:21.497Z,54.07
2023-09-09T10:19:16.879Z,54.47
2023-09-09T10:20:12.396Z,54.41
2023-09-09T10:21:08.066Z,54.46
2023-09-09T10:22:03.521Z,54.77
2023-09-09T10:22:59.011Z,54.22
2023-09-09T10:23:55.177Z,53.71
2023-09-09T10:24:50.748Z,53.43
2023-09-09T10:25:46.724Z,53.20
2023-09-09T10:26:42.084Z,52.94
2023-09-09T10:27:37.565Z,52.88
2023-09-09T10:28:33.356Z,52.69
2023-09-09T10:29:28.832Z,52.62
2023-09-09T10:30:24.861Z,52.38
2023-09-09T10:31:20.174Z,52.60
2023-09-09T10:32:15.721Z,52.74
2023-09-09T10:33:11.596Z,52.80
2023-09-09T10:34:07.042Z,52.68
2023-09-09T10:35:02.626Z,52.77
2023-09-09T10:35:58.622Z,52.70
2023-09-09T10:37:01.635Z,52.36
2023-09-09T10:37:50.983Z,52.81
2023-09-09T10:38:45.539Z,51.98
2023-09-09T10:39:41.041Z,52.54
2023-09-09T10:40:36.859Z,53.11
2023-09-09T10:41:33.472Z,52.60
2023-09-09T10:42:28.383Z,52.88
2023-09-09T10:43:23.569Z,52.99
2023-09-09T10:44:18.937Z,53.00
2023-09-09T10:45:14.695Z,53.03
2023-09-09T10:46:10.270Z,52.59
2023-09-09T10:47:05.661Z,52.47
2023-09-09T10:48:01.035Z,52.43
2023-09-09T10:48:56.873Z,52.26
2023-09-09T10:49:52.522Z,51.65
2023-09-09T10:50:48.190Z,50.77
2023-09-09T10:51:43.939Z,50.98
2023-09-09T10:52:39.432Z,50.93
2023-09-09T10:53:34.925Z,51.57
2023-09-09T10:54:31.325Z,51.96
2023-09-09T10:55:26.974Z,51.34
2023-09-09T10:56:22.871Z,51.17
2023-09-09T10:57:18.221Z,51.25
2023-09-09T10:58:13.674Z,51.31
2023-09-09T10:59:09.577Z,51.34
2023-09-09T11:00:05.156Z,51.21
2023-09-09T11:01:00.939Z,51.01
2023-09-09T11:01:56.334Z,50.74
2023-09-09T11:02:51.833Z,51.15
2023-09-09T11:03:47.703Z,51.04
2023-09-09T11:04:43.387Z,50.79
2023-09-09T11:05:38.820Z,50.45
2023-09-09T11:06:34.218Z,49.24
2023-09-09T11:07:29.544Z,49.20
2023-09-09T11:08:24.933Z,49.44
2023-09-09T11:09:19.982Z,49.65
2023-09-09T11:10:15.044Z,49.72
2023-09-09T11:11:10.288Z,49.69
2023-09-09T11:12:05.213Z,49.92
2023-09-09T11:13:00.460Z,50.29
2023-09-09T11:13:55.424Z,50.40
2023-09-09T11:14:50.436Z,50.11
2023-09-09T11:15:45.516Z,49.89
2023-09-09T11:16:40.640Z,49.97
2023-09-09T11:17:36.515Z,49.57
2023-09-09T11:18:30.633Z,48.96
2023-09-09T11:19:25.729Z,49.68
2023-09-09T11:20:20.865Z,49.83
2023-09-09T11:21:16.131Z,48.96
2023-09-09T11:22:11.900Z,49.00
2023-09-09T11:23:07.377Z,48.40
2023-09-09T11:24:02.905Z,49.07
2023-09-09T11:24:58.396Z,48.98
2023-09-09T11:25:54.286Z,48.89
2023-09-09T11:26:50.053Z,48.68
2023-09-09T11:27:45.629Z,48.78
2023-09-09T11:28:41.013Z,48.39
2023-09-09T11:29:37.759Z,47.87
2023-09-09T11:30:33.026Z,48.08
2023-09-09T11:31:27.782Z,48.32
2023-09-09T11:32:23.432Z,48.75
2023-09-09T11:33:19.478Z,49.20
2023-09-09T11:34:14.948Z,48.37
2023-09-09T11:35:10.960Z,48.23
2023-09-09T11:36:06.475Z,48.01
2023-09-09T11:37:02.167Z,48.20
2023-09-09T11:37:57.625Z,48.30
2023-09-09T11:38:53.051Z,47.76
2023-09-09T11:39:48.927Z,47.33
2023-09-09T11:40:44.154Z,47.52
2023-09-09T11:41:39.766Z,48.01
2023-09-09T11:42:35.692Z,47.76
2023-09-09T11:43:30.771Z,47.00
2023-09-09T11:44:26.359Z,47.60
2023-09-09T11:45:22.404Z,47.80
2023-09-09T11:46:17.863Z,47.94
2023-09-09T11:47:14.104Z,47.92
2023-09-09T11:48:09.446Z,47.99
2023-09-09T11:49:04.923Z,47.86
2023-09-09T11:50:00.829Z,47.41
2023-09-09T11:50:56.298Z,47.06
2023-09-09T11:51:52.161Z,47.03
2023-09-09T11:52:47.774Z,46.58